createdAt,value
2022-12-18T00:00:01.059Z,21.0
2022-12-18T00:05:01.624Z,21.0
2022-12-18T00:10:01.245Z,21.0
2022-12-18T00:15:00.140Z,21.0
2022-12-18T00:20:01.093Z,21.0
2022-12-18T00:25:01.917Z,21.0
2022-12-18T00:30:00.153Z,21.0
2022-12-18T00:35:00.889Z,21.0
2022-12-18T00:40:01.320Z,21.0
2022-12-18T00:45:01.053Z,21.0
2022-12-18T00:50:01.087Z,21.0
2022-12-18T00:55:04.575Z,21.0
2022-12-18T01:00:00.978Z,21.0
2022-12-18T01:05:01.283Z,21.0
2022-12-18T01:10:01.068Z,21.0
2022-12-18T01:15:01.070Z,21.0
2022-12-18T01:20:01.297Z,21.0
2022-12-18T01:25:01.498Z,21.0
2022-12-18T01:30:01.093Z,21.0
2022-12-18T01:35:01.278Z,21.0
2022-12-18T01:40:01.294Z,21.0
2022-12-18T01:45:01.069Z,21.0
2022-12-18T01:50:01.213Z,21.0
2022-12-18T01:55:00.134Z,21.0
2022-12-18T02:00:01.476Z,21.0
2022-12-18T02:05:00.121Z,21.1
2022-12-18T02:10:01.582Z,21.1
2022-12-18T02:15:00.236Z,21.1
2022-12-18T02:20:01.041Z,21.1
2022-12-18T02:25:01.886Z,21.1
2022-12-18T02:30:01.025Z,21.2
2022-12-18T02:35:00.243Z,21.2
2022-12-18T02:40:01.244Z,21.2
2022-12-18T02:45:01.078Z,21.3
2022-12-18T02:50:01.268Z,21.3
2022-12-18T02:55:06.099Z,21.2
2022-12-18T03:00:01.353Z,21.2
2022-12-18T03:05:01.196Z,21.2
2022-12-18T03:10:00.997Z,21.1
2022-12-18T03:15:01.223Z,21.1
2022-12-18T03:20:02.200Z,21.0
2022-12-18T03:25:00.135Z,21.0
2022-12-18T03:30:01.088Z,21.0
2022-12-18T03:35:00.118Z,21.0
2022-12-18T03:45:01.081Z,21.0
2022-12-18T03:50:00.163Z,21.0
2022-12-18T03:55:01.455Z,21.0
2022-12-18T04:00:02.790Z,21.0
2022-12-18T04:05:00.238Z,21.0
2022-12-18T04:10:01.261Z,21.0
2022-12-18T04:15:01.324Z,21.0
2022-12-18T04:20:01.248Z,21.0
2022-12-18T04:25:01.580Z,21.0
2022-12-18T04:30:01.540Z,21.1
2022-12-18T04:35:00.990Z,21.2
2022-12-18T04:40:01.211Z,21.2
2022-12-18T04:45:00.220Z,21.2
2022-12-18T04:50:01.036Z,21.3
2022-12-18T04:55:01.604Z,21.3
2022-12-18T05:00:01.233Z,21.3
2022-12-18T05:05:01.104Z,21.2
2022-12-18T05:10:01.034Z,21.2
2022-12-18T05:15:00.089Z,21.2
2022-12-18T05:20:01.013Z,21.1
2022-12-18T05:25:01.062Z,21.0
2022-12-18T05:30:00.146Z,21.1
2022-12-18T05:35:00.111Z,21.0
2022-12-18T05:40:00.923Z,21.0
2022-12-18T05:45:01.149Z,21.0
2022-12-18T05:50:01.272Z,21.0
2022-12-18T05:55:01.030Z,21.0
2022-12-18T06:00:01.052Z,21.0
2022-12-18T06:05:01.112Z,21.0
2022-12-18T06:10:01.031Z,21.0
2022-12-18T06:15:01.452Z,21.0
2022-12-18T06:20:01.047Z,21.0
2022-12-18T06:25:00.227Z,21.0
2022-12-18T06:30:03.182Z,21.0
2022-12-18T06:35:01.193Z,21.0
2022-12-18T06:40:00.173Z,21.0
2022-12-18T06:45:02.253Z,21.0
2022-12-18T06:50:01.333Z,21.0
2022-12-18T06:55:01.015Z,21.0
2022-12-18T07:00:01.240Z,21.0
2022-12-18T07:05:03.726Z,21.0
2022-12-18T07:10:02.475Z,21.0
2022-12-18T07:15:00.124Z,21.0
2022-12-18T07:20:01.470Z,21.0
2022-12-18T07:25:01.317Z,21.1
2022-12-18T07:30:00.142Z,21.1
2022-12-18T07:35:00.120Z,21.2
2022-12-18T07:40:01.540Z,21.3
2022-12-18T07:45:06.668Z,21.3
2022-12-18T07:50:01.402Z,21.4
2022-12-18T07:55:01.210Z,21.4
2022-12-18T08:00:01.225Z,21.4
2022-12-18T08:05:01.250Z,21.4
2022-12-18T08:10:01.174Z,21.4
2022-12-18T08:15:01.300Z,21.5
2022-12-18T08:20:00.959Z,21.5
2022-12-18T08:25:01.035Z,21.5
2022-12-18T08:30:01.156Z,21.5
2022-12-18T08:35:01.097Z,21.4
2022-12-18T08:40:01.327Z,21.4
2022-12-18T08:45:01.213Z,21.4
2022-12-18T08:50:01.473Z,21.3
2022-12-18T08:55:00.974Z,21.3
2022-12-18T09:00:01.275Z,21.2
2022-12-18T09:05:01.039Z,21.1
2022-12-18T09:10:01.217Z,21.1
2022-12-18T09:15:01.007Z,21.1
2022-12-18T09:20:10.185Z,21.1
2022-12-18T09:25:01.087Z,21.1
2022-12-18T09:30:01.475Z,21.1
2022-12-18T09:35:01.008Z,21.2
2022-12-18T09:40:02.554Z,21.2
2022-12-18T09:45:01.065Z,21.1
2022-12-18T09:50:03.148Z,21.2
2022-12-18T09:55:00.134Z,21.2
2022-12-18T10:00:01.569Z,21.3
2022-12-18T10:05:01.060Z,21.3
2022-12-18T10:10:01.407Z,21.4
2022-12-18T10:15:01.009Z,21.5
2022-12-18T10:20:01.097Z,21.5
2022-12-18T10:25:01.262Z,21.5
2022-12-18T10:35:06.414Z,21.5
2022-12-18T10:40:01.139Z,21.5
2022-12-18T10:45:01.365Z,21.5
2022-12-18T10:50:01.176Z,21.5
2022-12-18T10:55:01.168Z,21.5
2022-12-18T11:00:01.162Z,21.5
2022-12-18T11:05:01.279Z,21.5
2022-12-18T11:10:01.355Z,21.5
2022-12-18T11:15:01.328Z,21.5
2022-12-18T11:20:01.442Z,21.5
2022-12-18T11:30:00.156Z,21.5
2022-12-18T11:35:01.094Z,21.5
2022-12-18T11:40:01.150Z,21.5
2022-12-18T11:45:00.128Z,21.5
2022-12-18T11:50:01.239Z,21.5
2022-12-18T11:55:00.127Z,21.5
2022-12-18T12:00:01.175Z,21.5
2022-12-18T12:05:00.999Z,21.5
2022-12-18T12:10:00.785Z,21.6
2022-12-18T12:15:01.330Z,21.6
2022-12-18T12:20:01.392Z,21.6
2022-12-18T12:25:00.115Z,21.6
2022-12-18T12:30:01.245Z,21.6
2022-12-18T12:35:02.650Z,21.6
2022-12-18T12:50:01.470Z,21.6
2022-12-18T12:55:00.112Z,21.6
2022-12-18T13:00:03.052Z,21.6
2022-12-18T13:05:01.224Z,21.6
2022-12-18T13:10:02.397Z,21.6
2022-12-18T13:15:00.940Z,21.6
2022-12-18T13:20:01.439Z,21.5
2022-12-18T13:25:00.106Z,21.6
2022-12-18T13:30:01.585Z,21.6
2022-12-18T13:35:01.017Z,21.6
2022-12-18T13:40:00.824Z,21.6
2022-12-18T13:45:01.340Z,21.5
2022-12-18T13:50:02.819Z,21.5
2022-12-18T13:55:01.209Z,21.5
2022-12-18T14:00:02.303Z,21.4
2022-12-18T14:05:00.124Z,21.4
2022-12-18T14:10:12.519Z,21.4
2022-12-18T14:15:02.724Z,21.4
2022-12-18T14:20:01.112Z,21.4
2022-12-18T14:25:00.970Z,21.4
2022-12-18T14:30:01.111Z,21.5
2022-12-18T14:35:01.226Z,21.5
2022-12-18T14:40:04.580Z,21.5
2022-12-18T14:45:16.670Z,21.4
2022-12-18T14:50:01.346Z,21.5
2022-12-18T14:55:01.282Z,21.5
2022-12-18T15:00:01.040Z,21.5
2022-12-18T15:05:00.123Z,21.4
2022-12-18T15:10:01.425Z,21.4
2022-12-18T15:15:01.002Z,21.5
2022-12-18T15:20:01.562Z,21.5
2022-12-18T15:25:01.048Z,21.5
2022-12-18T15:35:00.231Z,21.5
2022-12-18T15:40:01.423Z,21.6
2022-12-18T15:45:01.074Z,21.5
2022-12-18T15:50:00.138Z,21.2
2022-12-18T15:55:01.345Z,20.8
2022-12-18T16:00:01.340Z,20.4
2022-12-18T16:05:01.001Z,20.0
2022-12-18T16:10:02.395Z,19.6
2022-12-18T16:15:01.511Z,19.5
2022-12-18T16:20:01.301Z,19.5
2022-12-18T16:25:01.234Z,19.6
2022-12-18T16:30:01.106Z,19.7
2022-12-18T16:35:03.696Z,19.8
2022-12-18T16:40:01.040Z,19.9
2022-12-18T16:45:01.484Z,19.9
2022-12-18T16:50:01.084Z,20.0
2022-12-18T16:55:01.481Z,20.1
2022-12-18T17:00:05.375Z,20.2
2022-12-18T17:05:01.407Z,20.3
2022-12-18T17:10:01.295Z,20.4
2022-12-18T17:15:01.410Z,20.5
2022-12-18T17:20:01.144Z,20.5
2022-12-18T17:25:01.250Z,20.6
2022-12-18T17:30:01.009Z,20.7
2022-12-18T17:35:05.569Z,20.8
2022-12-18T17:40:01.064Z,20.8
2022-12-18T17:45:00.133Z,20.9
2022-12-18T17:50:01.385Z,21.0
2022-12-18T17:55:00.272Z,21.0
2022-12-18T18:00:01.870Z,21.0
2022-12-18T18:05:00.125Z,21.0
2022-12-18T18:10:01.047Z,21.0
2022-12-18T18:15:01.161Z,21.0
2022-12-18T18:20:01.245Z,21.0
2022-12-18T18:25:01.004Z,21.0
2022-12-18T18:30:01.226Z,21.0
2022-12-18T18:35:00.253Z,21.1
2022-12-18T18:40:01.506Z,21.1
2022-12-18T18:45:01.043Z,21.1
2022-12-18T18:50:01.405Z,21.0
2022-12-18T18:55:13.152Z,21.0
2022-12-18T19:00:01.298Z,21.0
2022-12-18T19:05:01.253Z,21.1
2022-12-18T19:10:04.369Z,21.1
2022-12-18T19:15:01.194Z,21.1
2022-12-18T19:20:01.262Z,21.1
2022-12-18T19:25:02.242Z,21.1
2022-12-18T19:30:02.632Z,21.1
2022-12-18T19:35:01.021Z,21.1
2022-12-18T19:40:02.249Z,21.0
2022-12-18T19:45:01.448Z,21.0
2022-12-18T19:50:02.274Z,21.1
2022-12-18T19:55:01.517Z,21.0
2022-12-18T20:00:01.410Z,21.0
2022-12-18T20:05:00.993Z,21.0
2022-12-18T20:10:08.586Z,21.0
2022-12-18T20:15:01.671Z,21.0
2022-12-18T20:20:00.988Z,21.0
2022-12-18T20:25:00.116Z,21.0
2022-12-18T20:30:01.337Z,21.0
2022-12-18T20:35:01.250Z,21.0
2022-12-18T20:40:01.291Z,21.0
2022-12-18T20:45:00.983Z,21.0
2022-12-18T20:50:01.119Z,21.0
2022-12-18T20:55:01.097Z,21.1
2022-12-18T21:00:01.062Z,21.1
2022-12-18T21:05:01.012Z,21.1
2022-12-18T21:10:01.121Z,21.1
2022-12-18T21:15:01.320Z,21.1
2022-12-18T21:20:01.056Z,21.1
2022-12-18T21:25:01.227Z,21.1
2022-12-18T21:30:01.332Z,21.1
2022-12-18T21:35:00.152Z,21.1
2022-12-18T21:40:01.299Z,21.1
2022-12-18T21:45:01.010Z,21.1
2022-12-18T21:50:01.447Z,21.2
2022-12-18T21:55:08.254Z,21.1
2022-12-18T22:00:01.301Z,21.1
2022-12-18T22:05:01.694Z,21.1
2022-12-18T22:10:01.243Z,21.2
2022-12-18T22:15:01.089Z,21.2
2022-12-18T22:20:01.481Z,21.2
2022-12-18T22:25:00.967Z,21.2
2022-12-18T22:30:01.083Z,21.2
2022-12-18T22:35:06.144Z,21.2
2022-12-18T22:40:00.136Z,21.2
2022-12-18T22:45:01.255Z,21.3
2022-12-18T22:50:01.089Z,21.3
2022-12-18T22:55:01.482Z,21.2
2022-12-18T23:00:01.299Z,21.3
2022-12-18T23:05:01.213Z,21.4
2022-12-18T23:10:01.408Z,21.4
2022-12-18T23:15:00.136Z,21.4
2022-12-18T23:20:04.481Z,21.4
2022-12-18T23:25:01.905Z,21.3
2022-12-18T23:30:01.626Z,21.2
2022-12-18T23:35:00.122Z,21.2
2022-12-18T23:40:01.072Z,21.2
2022-12-18T23:45:00.967Z,21.2
2022-12-18T23:50:01.095Z,21.2
2022-12-18T23:55:02.691Z,21.2
